createdAt,value
2023-11-21T00:02:19.569Z,10.98
2023-11-21T00:04:46.871Z,10.96
2023-11-21T00:07:13.584Z,10.99
2023-11-21T00:09:40.191Z,11.06
2023-11-21T00:12:07.139Z,11.03
2023-11-21T00:14:34.315Z,11.03
2023-11-21T00:17:00.891Z,11.14
2023-11-21T00:19:27.496Z,10.99
2023-11-21T00:21:54.038Z,11.01
2023-11-21T00:24:20.641Z,11.11
2023-11-21T00:26:49.807Z,11.14
2023-11-21T00:29:18.531Z,11.07
2023-11-21T00:31:46.224Z,11.14
2023-11-21T00:34:13.829Z,11.05
2023-11-21T00:36:41.336Z,11.03
2023-11-21T00:39:08.685Z,11.09
2023-11-21T00:41:37.715Z,11.01
2023-11-21T00:44:04.802Z,10.96
2023-11-21T00:46:31.452Z,10.91
2023-11-21T00:48:58.615Z,11.08
2023-11-21T00:51:25.712Z,10.91
2023-11-21T00:53:52.372Z,10.96
2023-11-21T00:56:19.591Z,10.84
2023-11-21T00:58:50.993Z,10.96
2023-11-21T01:01:18.470Z,10.98
2023-11-21T01:03:47.496Z,10.92
2023-11-21T01:06:16.150Z,11.00
2023-11-21T01:08:43.447Z,10.95
2023-11-21T01:11:11.608Z,11.02
2023-11-21T01:13:38.408Z,11.00
2023-11-21T01:16:05.436Z,11.06
2023-11-21T01:18:32.032Z,11.05
2023-11-21T01:20:58.668Z,11.09
2023-11-21T01:23:25.182Z,11.14
2023-11-21T01:25:53.113Z,11.09
2023-11-21T01:28:21.196Z,11.21
2023-11-21T01:30:47.839Z,11.11
2023-11-21T01:33:16.881Z,11.10
2023-11-21T01:35:44.111Z,11.07
2023-11-21T01:38:10.748Z,11.11
2023-11-21T01:40:37.595Z,11.04
2023-11-21T01:43:07.050Z,11.14
2023-11-21T01:45:35.155Z,11.15
2023-11-21T01:48:04.121Z,11.05
2023-11-21T01:50:31.468Z,11.21
2023-11-21T01:52:58.935Z,11.01
2023-11-21T01:55:28.174Z,10.95
2023-11-21T01:57:57.486Z,10.87
2023-11-21T02:00:25.023Z,10.93
2023-11-21T02:02:53.306Z,10.77
2023-11-21T02:05:20.663Z,10.75
2023-11-21T02:07:52.156Z,10.70
2023-11-21T02:10:23.962Z,10.82
2023-11-21T02:12:51.513Z,10.72
2023-11-21T02:15:21.611Z,10.58
2023-11-21T02:17:53.383Z,10.47
2023-11-21T02:20:21.630Z,10.68
2023-11-21T02:23:02.236Z,10.71
2023-11-21T02:25:34.381Z,10.81
2023-11-21T02:28:03.551Z,10.78
2023-11-21T02:30:32.781Z,10.77
2023-11-21T02:32:59.431Z,10.64
2023-11-21T02:35:29.140Z,10.71
2023-11-21T02:37:56.104Z,10.72
2023-11-21T02:40:23.163Z,10.79
2023-11-21T02:42:52.451Z,10.65
2023-11-21T02:45:22.053Z,10.61
2023-11-21T02:47:50.496Z,10.64
2023-11-21T02:50:20.275Z,10.68
2023-11-21T02:52:47.142Z,10.56
2023-11-21T02:55:13.818Z,10.61
2023-11-21T02:57:40.452Z,10.61
2023-11-21T03:00:16.748Z,10.58
2023-11-21T03:02:44.737Z,10.49
2023-11-21T03:05:11.642Z,10.42
2023-11-21T03:07:39.762Z,10.53
2023-11-21T03:10:10.664Z,10.53
2023-11-21T03:12:38.787Z,10.48
2023-11-21T03:15:07.655Z,10.46
2023-11-21T03:17:37.643Z,10.53
2023-11-21T03:20:06.063Z,10.49
2023-11-21T03:22:32.802Z,10.55
2023-11-21T03:24:59.800Z,10.58
2023-11-21T03:27:26.675Z,10.62
2023-11-21T03:29:53.481Z,10.57
2023-11-21T03:32:20.129Z,10.71
2023-11-21T03:34:59.072Z,10.39
2023-11-21T03:37:26.190Z,10.45
2023-11-21T03:39:53.006Z,10.53
2023-11-21T03:42:19.693Z,10.47
2023-11-21T03:44:46.341Z,10.50
2023-11-21T03:47:12.996Z,10.54
2023-11-21T03:49:39.850Z,10.44
2023-11-21T03:52:06.949Z,10.50
2023-11-21T03:54:33.459Z,10.56
2023-11-21T03:57:00.049Z,10.43
2023-11-21T03:59:26.705Z,10.45
2023-11-21T04:01:53.334Z,10.53
2023-11-21T04:04:20.980Z,10.58
2023-11-21T04:06:47.614Z,10.46
2023-11-21T04:09:14.127Z,10.46
2023-11-21T04:11:40.663Z,10.48
2023-11-21T04:14:07.672Z,10.49
2023-11-21T04:16:34.813Z,10.35
2023-11-21T04:19:01.472Z,10.36
2023-11-21T04:21:28.109Z,10.50
2023-11-21T04:23:54.687Z,10.45
2023-11-21T04:26:21.229Z,10.52
2023-11-21T04:28:47.813Z,10.26
2023-11-21T04:31:14.429Z,10.31
2023-11-21T04:33:41.082Z,10.34
2023-11-21T04:36:08.329Z,10.33
2023-11-21T04:38:35.351Z,10.33
2023-11-21T04:41:03.821Z,10.21
2023-11-21T04:43:30.961Z,10.28
2023-11-21T04:45:57.657Z,10.35
2023-11-21T04:48:24.396Z,10.34
2023-11-21T04:50:51.097Z,10.41
2023-11-21T04:53:17.665Z,10.31
2023-11-21T04:55:45.095Z,10.35
2023-11-21T04:58:13.164Z,10.37
2023-11-21T05:00:39.836Z,10.32
2023-11-21T05:03:08.434Z,10.31
2023-11-21T05:05:35.214Z,10.31
2023-11-21T05:08:02.902Z,10.44
2023-11-21T05:10:30.409Z,10.54
2023-11-21T05:12:57.057Z,10.56
2023-11-21T05:15:24.497Z,10.51
2023-11-21T05:17:53.449Z,10.48
2023-11-21T05:20:24.773Z,10.55
2023-11-21T05:22:51.545Z,10.45
2023-11-21T05:25:19.598Z,10.53
2023-11-21T05:27:47.711Z,10.46
2023-11-21T05:30:15.423Z,10.37
2023-11-21T05:32:45.595Z,10.53
2023-11-21T05:35:17.265Z,10.57
2023-11-21T05:37:45.605Z,10.69
2023-11-21T05:40:13.929Z,10.61
2023-11-21T05:42:41.920Z,10.58
2023-11-21T05:45:12.805Z,10.62
2023-11-21T05:47:47.536Z,10.46
2023-11-21T05:50:16.540Z,10.52
2023-11-21T05:52:48.379Z,10.42
2023-11-21T05:55:15.419Z,10.62
2023-11-21T05:57:43.355Z,10.39
2023-11-21T06:00:12.534Z,10.44
2023-11-21T06:02:40.708Z,10.49
2023-11-21T06:05:08.746Z,10.48
2023-11-21T06:07:37.060Z,10.39
2023-11-21T06:10:07.573Z,10.54
2023-11-21T06:12:37.189Z,10.39
2023-11-21T06:15:10.068Z,10.50
2023-11-21T06:17:38.092Z,10.36
2023-11-21T06:20:10.457Z,10.37
2023-11-21T06:22:41.623Z,10.47
2023-11-21T06:25:09.500Z,10.45
2023-11-21T06:27:39.593Z,10.38
2023-11-21T06:30:08.298Z,10.35
2023-11-21T06:32:35.854Z,10.40
2023-11-21T06:35:03.033Z,10.48
2023-11-21T06:37:30.405Z,10.49
2023-11-21T06:39:59.277Z,10.40
2023-11-21T06:42:30.301Z,10.40
2023-11-21T06:44:58.583Z,10.48
2023-11-21T06:47:30.917Z,10.46
2023-11-21T06:49:58.147Z,10.32
2023-11-21T06:52:24.777Z,10.46
2023-11-21T06:54:51.366Z,10.49
2023-11-21T06:57:18.408Z,10.39
2023-11-21T06:59:45.293Z,10.46
2023-11-21T07:02:12.110Z,10.32
2023-11-21T07:04:38.823Z,10.37
2023-11-21T07:07:05.693Z,10.51
2023-11-21T07:09:32.354Z,10.63
2023-11-21T07:11:59.156Z,10.44
2023-11-21T07:14:25.782Z,10.43
2023-11-21T07:16:53.990Z,10.44
2023-11-21T07:19:21.287Z,10.50
2023-11-21T07:21:48.100Z,10.57
2023-11-21T07:24:15.226Z,10.44
2023-11-21T07:26:41.824Z,10.48
2023-11-21T07:29:10.090Z,10.52
2023-11-21T07:31:36.844Z,10.38
2023-11-21T07:34:03.534Z,10.46
2023-11-21T07:36:30.143Z,10.33
2023-11-21T07:38:56.761Z,10.45
2023-11-21T07:41:28.861Z,10.67
2023-11-21T07:43:58.504Z,10.61
2023-11-21T07:46:27.691Z,10.42
2023-11-21T07:48:54.619Z,10.38
2023-11-21T07:51:21.575Z,10.51
2023-11-21T07:53:50.265Z,10.44
2023-11-21T07:56:16.870Z,10.64
2023-11-21T07:58:46.255Z,10.35
2023-11-21T08:01:13.970Z,10.39
2023-11-21T08:03:43.154Z,10.48
2023-11-21T08:06:10.775Z,10.52
2023-11-21T08:08:37.353Z,10.57
2023-11-21T08:11:04.685Z,10.48
2023-11-21T08:13:34.078Z,10.53
2023-11-21T08:16:06.007Z,10.53
2023-11-21T08:18:39.862Z,10.57
2023-11-21T08:21:13.657Z,10.81
2023-11-21T08:23:40.668Z,10.73
2023-11-21T08:26:14.594Z,10.70
2023-11-21T08:28:45.205Z,10.75
2023-11-21T08:31:16.146Z,10.72
2023-11-21T08:33:42.964Z,10.75
2023-11-21T08:36:12.118Z,10.81
2023-11-21T08:38:38.820Z,10.84
2023-11-21T08:41:08.788Z,10.83
2023-11-21T08:43:41.536Z,10.97
2023-11-21T08:46:10.322Z,10.92
2023-11-21T08:48:37.676Z,10.88
2023-11-21T08:51:05.784Z,10.96
2023-11-21T08:53:32.319Z,10.95
2023-11-21T08:55:58.939Z,10.93
2023-11-21T08:58:25.532Z,11.05
2023-11-21T09:00:52.554Z,10.92
2023-11-21T09:03:19.233Z,11.12
2023-11-21T09:05:45.918Z,11.01
2023-11-21T09:08:13.033Z,11.02
2023-11-21T09:10:40.871Z,11.07
2023-11-21T09:13:11.354Z,11.15
2023-11-21T09:15:38.093Z,11.03
2023-11-21T09:18:06.245Z,11.00
2023-11-21T09:20:33.074Z,11.15
2023-11-21T09:22:59.699Z,11.12
2023-11-21T09:25:26.304Z,11.27
2023-11-21T09:27:52.877Z,11.16
2023-11-21T09:30:19.641Z,11.35
2023-11-21T09:32:46.943Z,11.24
2023-11-21T09:35:15.499Z,11.39
2023-11-21T09:37:42.762Z,11.25
2023-11-21T09:40:14.597Z,11.23
2023-11-21T09:42:52.137Z,11.34
2023-11-21T09:45:27.105Z,11.29
2023-11-21T09:47:57.094Z,11.18
2023-11-21T09:50:24.601Z,11.38
2023-11-21T09:53:02.041Z,11.23
2023-11-21T09:55:36.868Z,11.34
2023-11-21T09:58:06.290Z,11.31
2023-11-21T10:00:34.314Z,11.42
2023-11-21T10:03:01.452Z,11.49
2023-11-21T10:05:29.521Z,11.33
2023-11-21T10:07:58.745Z,11.46
2023-11-21T10:10:26.673Z,11.43
2023-11-21T10:12:57.694Z,11.42
2023-11-21T10:15:28.044Z,11.56
2023-11-21T10:17:56.486Z,11.57
2023-11-21T10:20:25.753Z,11.67
2023-11-21T10:22:52.835Z,11.61
2023-11-21T10:25:21.574Z,11.65
2023-11-21T10:27:51.710Z,11.80
2023-11-21T10:30:19.210Z,11.80
2023-11-21T10:32:46.231Z,11.82
2023-11-21T10:35:13.346Z,11.66
2023-11-21T10:37:44.497Z,12.02
2023-11-21T10:40:14.820Z,12.14
2023-11-21T10:42:42.973Z,11.92
2023-11-21T10:45:15.045Z,11.86
2023-11-21T10:47:43.073Z,11.95
2023-11-21T10:50:12.294Z,11.89
2023-11-21T10:52:41.210Z,11.86
2023-11-21T10:55:22.490Z,11.90
2023-11-21T10:57:52.174Z,11.92
2023-11-21T11:00:21.806Z,11.98
2023-11-21T11:02:53.278Z,11.76
2023-11-21T11:05:21.400Z,11.70
2023-11-21T11:07:55.918Z,11.65
2023-11-21T11:10:23.919Z,11.78
2023-11-21T11:12:53.572Z,11.60
2023-11-21T11:15:20.943Z,11.37
2023-11-21T11:17:49.626Z,11.36
2023-11-21T11:20:19.172Z,11.47
2023-11-21T11:23:05.484Z,11.23
2023-11-21T11:25:49.126Z,11.09
2023-11-21T11:28:21.374Z,11.22
2023-11-21T11:31:12.904Z,11.05
2023-11-21T11:33:51.660Z,11.13
2023-11-21T11:36:57.392Z,11.01
2023-11-21T11:39:42.855Z,11.16
2023-11-21T11:42:19.991Z,11.16
2023-11-21T11:44:53.304Z,11.20
2023-11-21T11:47:30.045Z,11.16
2023-11-21T11:49:58.189Z,11.38
2023-11-21T11:52:40.831Z,11.50
2023-11-21T11:55:21.343Z,11.33
2023-11-21T11:57:57.015Z,11.50
2023-11-21T12:00:36.094Z,11.49
2023-11-21T12:03:06.697Z,11.54
2023-11-21T12:05:40.363Z,11.57
2023-11-21T12:08:08.528Z,11.55
2023-11-21T12:10:38.087Z,11.59
2023-11-21T12:13:11.211Z,11.64
2023-11-21T12:15:39.398Z,11.75
2023-11-21T12:18:07.060Z,11.71
2023-11-21T12:20:39.681Z,11.77
2023-11-21T12:23:06.954Z,11.80
2023-11-21T12:25:34.328Z,11.87
2023-11-21T12:28:01.995Z,11.80
2023-11-21T12:30:32.094Z,11.78
2023-11-21T12:33:01.692Z,11.70
2023-11-21T12:35:35.154Z,11.74
2023-11-21T12:38:06.441Z,11.65
2023-11-21T12:40:33.358Z,11.69
2023-11-21T12:43:03.092Z,11.80
2023-11-21T12:45:30.515Z,11.84
2023-11-21T12:48:09.128Z,11.95
2023-11-21T12:50:37.746Z,11.77
2023-11-21T12:53:06.444Z,11.71
2023-11-21T12:55:38.725Z,11.79
2023-11-21T12:58:11.764Z,11.71
2023-11-21T13:00:44.278Z,11.76
2023-11-21T13:03:14.373Z,11.61
2023-11-21T13:05:47.761Z,11.58
2023-11-21T13:08:20.666Z,11.76
2023-11-21T13:10:50.831Z,11.70
2023-11-21T13:13:23.719Z,11.87
2023-11-21T13:16:01.744Z,11.84
2023-11-21T13:18:29.614Z,11.89
2023-11-21T13:20:59.003Z,11.78
2023-11-21T13:23:26.969Z,11.70
2023-11-21T13:26:02.440Z,11.87
2023-11-21T13:28:35.805Z,11.99
2023-11-21T13:31:10.655Z,12.08
2023-11-21T13:33:43.949Z,12.08
2023-11-21T13:36:11.933Z,11.91
2023-11-21T13:38:43.391Z,11.95
2023-11-21T13:41:11.528Z,11.98
2023-11-21T13:43:39.230Z,11.94
2023-11-21T13:46:16.432Z,12.01
2023-11-21T13:48:44.191Z,12.06
2023-11-21T13:51:19.920Z,11.88
2023-11-21T13:53:49.379Z,11.83
2023-11-21T13:56:20.857Z,11.80
2023-11-21T13:58:53.928Z,11.86
2023-11-21T14:01:25.956Z,12.10
2023-11-21T14:03:59.165Z,11.92
2023-11-21T14:06:33.839Z,11.99
2023-11-21T14:09:01.767Z,11.89
2023-11-21T14:11:33.062Z,11.93
2023-11-21T14:14:03.350Z,11.88
2023-11-21T14:16:29.973Z,11.82
2023-11-21T14:19:16.841Z,11.91
2023-11-21T14:21:47.580Z,11.86
2023-11-21T14:24:14.859Z,11.92
2023-11-21T14:26:43.254Z,11.88
2023-11-21T14:29:10.228Z,11.96
2023-11-21T14:31:37.258Z,11.91
2023-11-21T14:34:03.990Z,11.83
2023-11-21T14:36:30.535Z,11.91
2023-11-21T14:38:57.141Z,11.96
2023-11-21T14:41:23.759Z,12.04
2023-11-21T14:43:51.367Z,12.00
2023-11-21T14:46:20.647Z,11.94
2023-11-21T14:49:00.748Z,11.92
2023-11-21T14:51:31.406Z,12.04
2023-11-21T14:54:07.777Z,12.16
2023-11-21T14:56:35.678Z,12.05
2023-11-21T14:59:17.832Z,12.02
2023-11-21T15:01:56.124Z,12.04
2023-11-21T15:04:38.567Z,12.05
2023-11-21T15:07:06.419Z,12.00
2023-11-21T15:09:33.681Z,12.00
2023-11-21T15:12:16.683Z,11.97
2023-11-21T15:14:51.056Z,12.09
2023-11-21T15:17:27.136Z,12.07
2023-11-21T15:19:55.056Z,12.07
2023-11-21T15:22:22.188Z,12.05
2023-11-21T15:24:50.465Z,12.05
2023-11-21T15:27:18.177Z,12.10
2023-11-21T15:29:45.120Z,12.24
2023-11-21T15:32:12.613Z,12.16
2023-11-21T15:34:39.871Z,12.22
2023-11-21T15:37:10.937Z,12.08
2023-11-21T15:39:38.057Z,12.06
2023-11-21T15:42:06.074Z,12.06
2023-11-21T15:44:34.376Z,12.04
2023-11-21T15:47:01.202Z,12.05
2023-11-21T15:49:29.737Z,12.03
2023-11-21T15:52:00.774Z,11.99
2023-11-21T15:54:27.984Z,12.03
2023-11-21T15:57:00.494Z,12.17
2023-11-21T15:59:35.221Z,12.05
2023-11-21T16:02:05.735Z,12.08
2023-11-21T16:04:32.564Z,11.91
2023-11-21T16:07:00.792Z,11.85
2023-11-21T16:09:34.186Z,11.78
2023-11-21T16:12:04.701Z,11.82
2023-11-21T16:14:58.429Z,11.78
2023-11-21T16:17:25.317Z,11.72
2023-11-21T16:19:52.150Z,11.83
2023-11-21T16:22:18.807Z,11.90
2023-11-21T16:24:45.357Z,11.85
2023-11-21T16:27:12.250Z,11.83
2023-11-21T16:29:39.792Z,11.80
2023-11-21T16:32:07.763Z,11.80
2023-11-21T16:34:35.371Z,11.74
2023-11-21T16:37:02.044Z,11.74
2023-11-21T16:39:29.269Z,11.75
2023-11-21T16:41:56.058Z,11.79
2023-11-21T16:44:23.434Z,11.85
2023-11-21T16:46:57.525Z,11.73
2023-11-21T16:49:25.061Z,11.74
2023-11-21T16:51:52.664Z,11.71
2023-11-21T16:54:21.990Z,11.75
2023-11-21T16:56:48.683Z,11.75
2023-11-21T16:59:15.828Z,11.78
2023-11-21T17:01:43.085Z,11.79
2023-11-21T17:04:10.710Z,11.76
2023-11-21T17:06:37.596Z,11.72
2023-11-21T17:09:05.425Z,11.72
2023-11-21T17:11:32.524Z,11.69
2023-11-21T17:14:00.340Z,11.46
2023-11-21T17:16:27.188Z,11.53
2023-11-21T17:18:53.825Z,11.61
2023-11-21T17:21:26.289Z,11.29
2023-11-21T17:23:56.645Z,11.24
2023-11-21T17:26:23.525Z,11.21
2023-11-21T17:28:50.196Z,11.25
2023-11-21T17:31:19.103Z,11.23
2023-11-21T17:33:45.927Z,11.13
2023-11-21T17:36:14.999Z,11.13
2023-11-21T17:38:41.599Z,11.27
2023-11-21T17:41:08.957Z,11.20
2023-11-21T17:43:40.640Z,11.21
2023-11-21T17:46:09.524Z,11.24
2023-11-21T17:48:38.006Z,11.34
2023-11-21T17:51:05.121Z,11.22
2023-11-21T17:53:32.295Z,11.35
2023-11-21T17:56:00.027Z,11.26
2023-11-21T17:58:26.743Z,11.26
2023-11-21T18:00:54.206Z,11.30
2023-11-21T18:03:21.858Z,11.36
2023-11-21T18:05:48.670Z,11.38
2023-11-21T18:08:15.824Z,11.29
2023-11-21T18:10:42.500Z,11.38
2023-11-21T18:13:09.368Z,11.42
2023-11-21T18:15:36.025Z,11.31
2023-11-21T18:18:02.784Z,11.35
2023-11-21T18:20:29.392Z,11.37
2023-11-21T18:22:55.955Z,11.39
2023-11-21T18:25:22.785Z,11.36
2023-11-21T18:27:52.880Z,11.44
2023-11-21T18:30:19.538Z,11.42
2023-11-21T18:32:46.334Z,11.47
2023-11-21T18:35:13.134Z,11.33
2023-11-21T18:37:39.840Z,11.42
2023-11-21T18:40:07.154Z,11.31
2023-11-21T18:42:33.790Z,11.31
2023-11-21T18:45:00.697Z,11.49
2023-11-21T18:47:28.493Z,11.47
2023-11-21T18:49:56.241Z,11.55
2023-11-21T18:52:24.352Z,11.48
2023-11-21T18:54:51.214Z,11.38
2023-11-21T18:57:18.087Z,11.45
2023-11-21T18:59:45.490Z,11.42
2023-11-21T19:02:15.290Z,11.28
2023-11-21T19:04:42.063Z,11.29
2023-11-21T19:07:09.330Z,11.27
2023-11-21T19:09:36.691Z,11.28
2023-11-21T19:12:06.753Z,11.29
2023-11-21T19:14:33.345Z,11.34
2023-11-21T19:17:00.414Z,11.30
2023-11-21T19:19:27.542Z,11.21
2023-11-21T19:21:55.239Z,11.45
2023-11-21T19:24:21.997Z,11.34
2023-11-21T19:26:49.390Z,11.21
2023-11-21T19:29:16.336Z,11.25
2023-11-21T19:31:42.911Z,11.28
2023-11-21T19:34:10.558Z,11.23
2023-11-21T19:36:40.601Z,11.20
2023-11-21T19:39:07.194Z,11.31
2023-11-21T19:41:35.029Z,11.24
2023-11-21T19:44:02.822Z,11.33
2023-11-21T19:46:29.518Z,11.28
2023-11-21T19:48:56.193Z,11.35
2023-11-21T19:51:23.313Z,11.38
2023-11-21T19:53:50.131Z,11.31
2023-11-21T19:56:17.430Z,11.32
2023-11-21T19:58:44.062Z,11.24
2023-11-21T20:01:11.202Z,11.22
2023-11-21T20:03:38.143Z,11.27
2023-11-21T20:06:06.582Z,11.36
2023-11-21T20:08:35.815Z,11.33
2023-11-21T20:11:06.614Z,11.23
2023-11-21T20:13:33.547Z,11.27
2023-11-21T20:16:00.888Z,11.26
2023-11-21T20:18:27.829Z,11.18
2023-11-21T20:20:54.606Z,11.15
2023-11-21T20:23:23.075Z,11.19
2023-11-21T20:25:50.009Z,11.16
2023-11-21T20:28:17.341Z,11.16
2023-11-21T20:30:43.892Z,11.16
2023-11-21T20:33:10.560Z,11.20
2023-11-21T20:35:38.497Z,11.13
2023-11-21T20:38:06.364Z,11.23
2023-11-21T20:40:33.075Z,11.10
2023-11-21T20:43:03.945Z,11.23
2023-11-21T20:45:31.822Z,11.24
2023-11-21T20:47:59.824Z,11.09
2023-11-21T20:50:27.178Z,11.10
2023-11-21T20:52:53.949Z,11.18
2023-11-21T20:55:21.572Z,11.14
2023-11-21T20:57:50.241Z,11.24
2023-11-21T21:00:19.378Z,11.08
2023-11-21T21:02:48.425Z,11.26
2023-11-21T21:05:16.400Z,11.08
2023-11-21T21:07:45.899Z,11.02
2023-11-21T21:10:12.573Z,11.00
2023-11-21T21:12:40.685Z,11.05
2023-11-21T21:15:11.079Z,10.99
2023-11-21T21:17:41.776Z,11.09
2023-11-21T21:20:11.547Z,11.12
2023-11-21T21:22:43.496Z,10.98
2023-11-21T21:25:13.367Z,11.10
2023-11-21T21:27:40.405Z,11.17
2023-11-21T21:30:08.148Z,11.04
2023-11-21T21:32:35.080Z,11.09
2023-11-21T21:35:02.281Z,10.99
2023-11-21T21:37:30.435Z,10.96
2023-11-21T21:39:59.581Z,10.99
2023-11-21T21:42:26.260Z,10.91
2023-11-21T21:44:54.298Z,10.93
2023-11-21T21:47:21.072Z,11.01
2023-11-21T21:49:48.579Z,11.03
2023-11-21T21:52:15.598Z,10.96
2023-11-21T21:54:42.197Z,10.86
2023-11-21T21:57:09.718Z,10.87
2023-11-21T21:59:38.944Z,10.88
2023-11-21T22:02:06.497Z,10.84
2023-11-21T22:04:35.238Z,11.01
2023-11-21T22:07:02.180Z,10.83
2023-11-21T22:09:29.795Z,10.94
2023-11-21T22:11:57.307Z,10.87
2023-11-21T22:14:24.074Z,10.99
2023-11-21T22:16:50.662Z,10.82
2023-11-21T22:19:17.382Z,10.84
2023-11-21T22:21:44.274Z,10.85
2023-11-21T22:24:11.383Z,10.86
2023-11-21T22:26:37.923Z,10.93
2023-11-21T22:29:05.669Z,10.86
2023-11-21T22:31:32.296Z,11.07
2023-11-21T22:33:58.845Z,10.89
2023-11-21T22:36:26.037Z,10.92
2023-11-21T22:38:52.609Z,10.97
2023-11-21T22:41:26.818Z,10.90
2023-11-21T22:43:54.770Z,10.90
2023-11-21T22:46:21.518Z,10.88
2023-11-21T22:48:49.219Z,11.06
2023-11-21T22:51:17.303Z,10.95
2023-11-21T22:53:43.925Z,11.01
2023-11-21T22:56:12.396Z,10.89
2023-11-21T22:58:39.387Z,10.97
2023-11-21T23:01:06.543Z,11.01
2023-11-21T23:03:33.346Z,10.96
2023-11-21T23:06:00.018Z,11.08
2023-11-21T23:08:27.332Z,10.91
2023-11-21T23:10:54.454Z,11.05
2023-11-21T23:13:21.414Z,10.93
2023-11-21T23:15:48.934Z,11.03
2023-11-21T23:18:15.936Z,10.98
2023-11-21T23:20:42.711Z,10.91
2023-11-21T23:23:09.915Z,10.98
2023-11-21T23:25:37.681Z,10.96
2023-11-21T23:28:05.352Z,10.94
2023-11-21T23:30:31.889Z,10.94
2023-11-21T23:32:58.608Z,10.88
2023-11-21T23:35:26.290Z,10.91
2023-11-21T23:37:53.303Z,10.91
2023-11-21T23:40:19.898Z,11.01
2023-11-21T23:42:46.414Z,11.00
2023-11-21T23:45:13.076Z,11.08
2023-11-21T23:47:39.776Z,11.08
2023-11-21T23:50:06.726Z,11.07
2023-11-21T23:52:33.548Z,11.08
2023-11-21T23:55:00.462Z,11.09
2023-11-21T23:57:27.011Z,11.11
2023-11-21T23:59:53.569Z,11.03
